sensor_id;sensor_type;location;lat;lon;timestamp;temperature;humidity
21590;DHT22;10957;50.968;6.828;2023-03-12T00:01:43;1.30;1.00
21590;DHT22;10957;50.968;6.828;2023-03-12T00:06:44;1.20;1.00
21590;DHT22;10957;50.968;6.828;2023-03-12T00:11:45;1.20;1.00
21590;DHT22;10957;50.968;6.828;2023-03-12T00:16:47;0.80;1.00
21590;DHT22;10957;50.968;6.828;2023-03-12T00:21:48;1.30;1.00
21590;DHT22;10957;50.968;6.828;2023-03-12T00:26:49;1.20;1.00
21590;DHT22;10957;50.968;6.828;2023-03-12T00:31:50;1.20;1.00
21590;DHT22;10957;50.968;6.828;2023-03-12T00:36:52;1.40;1.00
21590;DHT22;10957;50.968;6.828;2023-03-12T00:41:53;0.90;1.00
21590;DHT22;10957;50.968;6.828;2023-03-12T00:46:54;1.50;1.00
21590;DHT22;10957;50.968;6.828;2023-03-12T00:51:55;1.40;1.00
21590;DHT22;10957;50.968;6.828;2023-03-12T00:56:57;1.50;1.00
21590;DHT22;10957;50.968;6.828;2023-03-12T01:01:58;1.60;1.00
21590;DHT22;10957;50.968;6.828;2023-03-12T01:06:59;1.50;1.00
21590;DHT22;10957;50.968;6.828;2023-03-12T01:12:00;1.60;1.00
21590;DHT22;10957;50.968;6.828;2023-03-12T01:17:01;1.50;1.00
21590;DHT22;10957;50.968;6.828;2023-03-12T01:22:03;1.50;1.00
21590;DHT22;10957;50.968;6.828;2023-03-12T01:27:04;1.60;1.00
21590;DHT22;10957;50.968;6.828;2023-03-12T01:32:05;1.60;1.00
21590;DHT22;10957;50.968;6.828;2023-03-12T01:37:07;1.70;1.00
21590;DHT22;10957;50.968;6.828;2023-03-12T01:42:08;1.50;1.00
21590;DHT22;10957;50.968;6.828;2023-03-12T01:47:09;1.60;1.00
21590;DHT22;10957;50.968;6.828;2023-03-12T01:52:14;1.10;1.00
21590;DHT22;10957;50.968;6.828;2023-03-12T01:57:40;1.10;1.00
21590;DHT22;10957;50.968;6.828;2023-03-12T02:02:44;1.70;1.00
21590;DHT22;10957;50.968;6.828;2023-03-12T02:07:49;1.80;1.00
21590;DHT22;10957;50.968;6.828;2023-03-12T02:12:51;1.50;1.00
21590;DHT22;10957;50.968;6.828;2023-03-12T02:17:53;1.20;1.00
21590;DHT22;10957;50.968;6.828;2023-03-12T02:28:33;1.80;1.00
21590;DHT22;10957;50.968;6.828;2023-03-12T02:33:42;1.60;1.00
21590;DHT22;10957;50.968;6.828;2023-03-12T02:38:46;1.70;1.00
21590;DHT22;10957;50.968;6.828;2023-03-12T02:44:01;1.80;1.00
21590;DHT22;10957;50.968;6.828;2023-03-12T02:49:03;1.70;1.00
21590;DHT22;10957;50.968;6.828;2023-03-12T02:54:05;1.40;1.00
21590;DHT22;10957;50.968;6.828;2023-03-12T02:59:08;1.70;1.00
21590;DHT22;10957;50.968;6.828;2023-03-12T03:04:12;1.80;1.00
21590;DHT22;10957;50.968;6.828;2023-03-12T03:09:14;1.90;1.00
21590;DHT22;10957;50.968;6.828;2023-03-12T03:14:15;1.80;1.00
21590;DHT22;10957;50.968;6.828;2023-03-12T03:19:17;1.70;1.00
21590;DHT22;10957;50.968;6.828;2023-03-12T03:24:18;2.10;1.00
21590;DHT22;10957;50.968;6.828;2023-03-12T03:29:19;2.10;1.00
21590;DHT22;10957;50.968;6.828;2023-03-12T03:34:21;1.90;1.00
21590;DHT22;10957;50.968;6.828;2023-03-12T03:39:22;2.00;1.00
21590;DHT22;10957;50.968;6.828;2023-03-12T03:44:25;1.80;1.00
21590;DHT22;10957;50.968;6.828;2023-03-12T03:49:27;1.90;1.00
21590;DHT22;10957;50.968;6.828;2023-03-12T03:54:28;1.90;1.00
21590;DHT22;10957;50.968;6.828;2023-03-12T03:59:31;2.20;1.00
21590;DHT22;10957;50.968;6.828;2023-03-12T04:04:32;1.90;1.00
21590;DHT22;10957;50.968;6.828;2023-03-12T04:09:34;2.10;1.00
21590;DHT22;10957;50.968;6.828;2023-03-12T04:14:38;2.10;1.00
21590;DHT22;10957;50.968;6.828;2023-03-12T04:19:40;2.20;1.00
21590;DHT22;10957;50.968;6.828;2023-03-12T04:24:41;2.20;1.00
21590;DHT22;10957;50.968;6.828;2023-03-12T04:29:42;2.40;1.00
21590;DHT22;10957;50.968;6.828;2023-03-12T04:34:45;2.20;1.00
21590;DHT22;10957;50.968;6.828;2023-03-12T04:39:49;2.20;1.00
21590;DHT22;10957;50.968;6.828;2023-03-12T04:44:50;2.40;1.00
21590;DHT22;10957;50.968;6.828;2023-03-12T04:49:53;2.20;1.00
21590;DHT22;10957;50.968;6.828;2023-03-12T04:54:54;2.20;1.00
21590;DHT22;10957;50.968;6.828;2023-03-12T04:59:56;2.10;1.00
21590;DHT22;10957;50.968;6.828;2023-03-12T05:04:57;1.90;1.00
21590;DHT22;10957;50.968;6.828;2023-03-12T05:09:59;1.90;1.00
21590;DHT22;10957;50.968;6.828;2023-03-12T05:15:01;1.90;1.00
21590;DHT22;10957;50.968;6.828;2023-03-12T05:20:03;1.80;21.90
21590;DHT22;10957;50.968;6.828;2023-03-12T05:25:06;1.90;79.30
21590;DHT22;10957;50.968;6.828;2023-03-12T05:30:09;1.90;99.90
21590;DHT22;10957;50.968;6.828;2023-03-12T05:35:11;1.90;99.90
21590;DHT22;10957;50.968;6.828;2023-03-12T05:40:14;2.00;99.90
21590;DHT22;10957;50.968;6.828;2023-03-12T05:45:16;2.10;99.90
21590;DHT22;10957;50.968;6.828;2023-03-12T05:50:22;1.90;99.90
21590;DHT22;10957;50.968;6.828;2023-03-12T05:55:24;2.10;99.90
21590;DHT22;10957;50.968;6.828;2023-03-12T06:00:25;1.90;99.90
21590;DHT22;10957;50.968;6.828;2023-03-12T06:05:32;2.10;99.90
21590;DHT22;10957;50.968;6.828;2023-03-12T06:10:33;1.90;99.90
21590;DHT22;10957;50.968;6.828;2023-03-12T06:15:37;2.10;99.90
21590;DHT22;10957;50.968;6.828;2023-03-12T06:20:40;1.50;99.90
21590;DHT22;10957;50.968;6.828;2023-03-12T06:25:44;2.20;99.90
21590;DHT22;10957;50.968;6.828;2023-03-12T06:30:45;2.00;99.90
21590;DHT22;10957;50.968;6.828;2023-03-12T06:35:46;2.20;99.90
21590;DHT22;10957;50.968;6.828;2023-03-12T06:40:59;2.10;99.90
21590;DHT22;10957;50.968;6.828;2023-03-12T06:46:01;2.50;99.90
21590;DHT22;10957;50.968;6.828;2023-03-12T06:51:03;2.20;99.90
21590;DHT22;10957;50.968;6.828;2023-03-12T06:56:05;2.40;99.90
21590;DHT22;10957;50.968;6.828;2023-03-12T07:01:07;2.50;99.90
21590;DHT22;10957;50.968;6.828;2023-03-12T07:06:15;2.70;99.90
21590;DHT22;10957;50.968;6.828;2023-03-12T07:11:18;2.60;99.90
21590;DHT22;10957;50.968;6.828;2023-03-12T07:16:19;2.80;99.90
21590;DHT22;10957;50.968;6.828;2023-03-12T07:21:20;2.70;99.90
21590;DHT22;10957;50.968;6.828;2023-03-12T07:26:23;2.60;99.90
21590;DHT22;10957;50.968;6.828;2023-03-12T07:31:24;2.80;99.90
21590;DHT22;10957;50.968;6.828;2023-03-12T07:36:25;2.80;99.90
21590;DHT22;10957;50.968;6.828;2023-03-12T07:41:27;3.00;99.90
21590;DHT22;10957;50.968;6.828;2023-03-12T07:46:28;3.10;99.90
21590;DHT22;10957;50.968;6.828;2023-03-12T07:51:29;3.30;99.90
21590;DHT22;10957;50.968;6.828;2023-03-12T07:56:31;3.00;99.90
21590;DHT22;10957;50.968;6.828;2023-03-12T08:01:32;3.40;99.90
21590;DHT22;10957;50.968;6.828;2023-03-12T08:06:33;3.40;99.90
21590;DHT22;10957;50.968;6.828;2023-03-12T08:11:35;3.60;99.90
21590;DHT22;10957;50.968;6.828;2023-03-12T08:16:37;3.70;99.90
21590;DHT22;10957;50.968;6.828;2023-03-12T08:21:38;3.20;99.90
21590;DHT22;10957;50.968;6.828;2023-03-12T08:26:39;3.70;99.90
21590;DHT22;10957;50.968;6.828;2023-03-12T08:31:41;3.80;99.90
21590;DHT22;10957;50.968;6.828;2023-03-12T08:36:42;3.90;99.90
21590;DHT22;10957;50.968;6.828;2023-03-12T08:41:44;3.50;99.90
21590;DHT22;10957;50.968;6.828;2023-03-12T08:46:45;3.80;99.90
21590;DHT22;10957;50.968;6.828;2023-03-12T08:51:47;3.70;99.90
21590;DHT22;10957;50.968;6.828;2023-03-12T08:56:52;4.30;1.00
21590;DHT22;10957;50.968;6.828;2023-03-12T09:01:53;4.30;1.00
21590;DHT22;10957;50.968;6.828;2023-03-12T09:06:54;4.80;1.00
21590;DHT22;10957;50.968;6.828;2023-03-12T09:11:56;4.10;1.00
21590;DHT22;10957;50.968;6.828;2023-03-12T09:16:57;4.60;1.00
21590;DHT22;10957;50.968;6.828;2023-03-12T09:21:58;4.30;1.00
21590;DHT22;10957;50.968;6.828;2023-03-12T09:27:00;4.80;1.00
21590;DHT22;10957;50.968;6.828;2023-03-12T09:32:01;4.90;1.00
21590;DHT22;10957;50.968;6.828;2023-03-12T09:37:03;5.00;1.00
21590;DHT22;10957;50.968;6.828;2023-03-12T09:42:05;5.10;1.00
21590;DHT22;10957;50.968;6.828;2023-03-12T09:47:27;5.40;12.70
21590;DHT22;10957;50.968;6.828;2023-03-12T09:52:38;5.40;44.10
21590;DHT22;10957;50.968;6.828;2023-03-12T09:57:39;5.40;72.80
21590;DHT22;10957;50.968;6.828;2023-03-12T10:13:24;5.70;99.90
21590;DHT22;10957;50.968;6.828;2023-03-12T10:18:37;6.30;99.90
21590;DHT22;10957;50.968;6.828;2023-03-12T10:30:33;6.30;99.90
21590;DHT22;10957;50.968;6.828;2023-03-12T10:35:38;6.30;99.90
21590;DHT22;10957;50.968;6.828;2023-03-12T10:40:40;6.70;99.90
21590;DHT22;10957;50.968;6.828;2023-03-12T10:45:46;6.90;99.90
21590;DHT22;10957;50.968;6.828;2023-03-12T10:51:04;6.90;99.90
21590;DHT22;10957;50.968;6.828;2023-03-12T10:56:13;7.10;99.90
21590;DHT22;10957;50.968;6.828;2023-03-12T11:01:21;7.20;99.90
21590;DHT22;10957;50.968;6.828;2023-03-12T11:06:27;7.20;99.90
21590;DHT22;10957;50.968;6.828;2023-03-12T11:11:34;7.50;99.90
21590;DHT22;10957;50.968;6.828;2023-03-12T11:16:35;8.70;99.90
21590;DHT22;10957;50.968;6.828;2023-03-12T11:21:36;8.90;99.90
21590;DHT22;10957;50.968;6.828;2023-03-12T11:27:06;9.10;99.90
21590;DHT22;10957;50.968;6.828;2023-03-12T11:49:02;9.70;99.90
21590;DHT22;10957;50.968;6.828;2023-03-12T11:53:59;9.60;99.90
21590;DHT22;10957;50.968;6.828;2023-03-12T11:59:34;9.70;99.90
21590;DHT22;10957;50.968;6.828;2023-03-12T12:10:00;10.30;99.90
21590;DHT22;10957;50.968;6.828;2023-03-12T12:20:45;10.60;37.50
21590;DHT22;10957;50.968;6.828;2023-03-12T12:26:05;10.50;8.70
21590;DHT22;10957;50.968;6.828;2023-03-12T12:31:35;11.00;1.00
21590;DHT22;10957;50.968;6.828;2023-03-12T12:36:38;11.10;1.00
21590;DHT22;10957;50.968;6.828;2023-03-12T12:42:05;11.10;1.00
21590;DHT22;10957;50.968;6.828;2023-03-12T12:47:15;11.20;1.00
21590;DHT22;10957;50.968;6.828;2023-03-12T12:52:19;11.20;1.00
21590;DHT22;10957;50.968;6.828;2023-03-12T12:57:27;10.90;1.00
21590;DHT22;10957;50.968;6.828;2023-03-12T13:02:31;11.40;1.00
21590;DHT22;10957;50.968;6.828;2023-03-12T13:07:33;12.10;1.00
21590;DHT22;10957;50.968;6.828;2023-03-12T13:12:42;11.50;1.00
21590;DHT22;10957;50.968;6.828;2023-03-12T13:33:40;11.60;99.90
21590;DHT22;10957;50.968;6.828;2023-03-12T13:44:29;11.70;99.90
21590;DHT22;10957;50.968;6.828;2023-03-12T13:54:45;11.60;99.90
21590;DHT22;10957;50.968;6.828;2023-03-12T13:59:48;11.30;99.90
21590;DHT22;10957;50.968;6.828;2023-03-12T14:04:52;11.90;99.90
21590;DHT22;10957;50.968;6.828;2023-03-12T14:10:35;11.90;99.90
21590;DHT22;10957;50.968;6.828;2023-03-12T14:20:55;12.10;99.90
21590;DHT22;10957;50.968;6.828;2023-03-12T14:26:00;12.00;99.90
21590;DHT22;10957;50.968;6.828;2023-03-12T14:31:13;11.70;99.90
21590;DHT22;10957;50.968;6.828;2023-03-12T14:36:18;12.00;99.90
21590;DHT22;10957;50.968;6.828;2023-03-12T14:41:26;11.80;99.90
21590;DHT22;10957;50.968;6.828;2023-03-12T14:46:29;12.00;99.90
21590;DHT22;10957;50.968;6.828;2023-03-12T14:51:35;11.90;96.60
21590;DHT22;10957;50.968;6.828;2023-03-12T14:56:36;12.20;80.00
21590;DHT22;10957;50.968;6.828;2023-03-12T15:01:37;12.20;65.60
21590;DHT22;10957;50.968;6.828;2023-03-12T15:06:52;12.40;50.00
21590;DHT22;10957;50.968;6.828;2023-03-12T15:12:12;12.00;54.50
21590;DHT22;10957;50.968;6.828;2023-03-12T15:17:19;11.90;48.10
21590;DHT22;10957;50.968;6.828;2023-03-12T15:22:22;11.60;60.50
21590;DHT22;10957;50.968;6.828;2023-03-12T15:32:28;11.60;47.90
21590;DHT22;10957;50.968;6.828;2023-03-12T15:37:33;11.70;11.30
21590;DHT22;10957;50.968;6.828;2023-03-12T15:42:42;11.90;1.00
21590;DHT22;10957;50.968;6.828;2023-03-12T15:47:45;11.50;1.00
21590;DHT22;10957;50.968;6.828;2023-03-12T15:53:03;11.90;1.00
21590;DHT22;10957;50.968;6.828;2023-03-12T15:58:32;11.90;1.00
21590;DHT22;10957;50.968;6.828;2023-03-12T16:03:33;11.70;1.00
21590;DHT22;10957;50.968;6.828;2023-03-12T16:08:54;11.60;1.00
21590;DHT22;10957;50.968;6.828;2023-03-12T16:14:05;11.30;1.00
21590;DHT22;10957;50.968;6.828;2023-03-12T16:19:15;11.40;1.00
21590;DHT22;10957;50.968;6.828;2023-03-12T16:24:17;11.10;1.00
21590;DHT22;10957;50.968;6.828;2023-03-12T16:29:19;11.60;1.00
21590;DHT22;10957;50.968;6.828;2023-03-12T16:34:20;11.40;1.00
21590;DHT22;10957;50.968;6.828;2023-03-12T16:39:22;11.40;1.00
21590;DHT22;10957;50.968;6.828;2023-03-12T16:44:25;10.80;1.00
21590;DHT22;10957;50.968;6.828;2023-03-12T16:49:27;10.80;1.00
21590;DHT22;10957;50.968;6.828;2023-03-12T16:54:29;11.40;1.00
21590;DHT22;10957;50.968;6.828;2023-03-12T16:59:30;11.20;1.00
21590;DHT22;10957;50.968;6.828;2023-03-12T17:04:33;11.20;1.00
21590;DHT22;10957;50.968;6.828;2023-03-12T17:09:34;10.50;1.00
21590;DHT22;10957;50.968;6.828;2023-03-12T17:14:35;10.80;1.00
21590;DHT22;10957;50.968;6.828;2023-03-12T17:19:37;10.40;1.00
21590;DHT22;10957;50.968;6.828;2023-03-12T17:24:38;10.10;1.00
21590;DHT22;10957;50.968;6.828;2023-03-12T17:29:39;10.80;1.00
21590;DHT22;10957;50.968;6.828;2023-03-12T17:34:41;10.30;1.00
21590;DHT22;10957;50.968;6.828;2023-03-12T17:39:42;10.20;1.00
21590;DHT22;10957;50.968;6.828;2023-03-12T17:44:43;9.80;1.00
21590;DHT22;10957;50.968;6.828;2023-03-12T17:49:44;10.00;1.00
21590;DHT22;10957;50.968;6.828;2023-03-12T17:54:46;9.90;1.00
21590;DHT22;10957;50.968;6.828;2023-03-12T17:59:47;10.20;1.00
21590;DHT22;10957;50.968;6.828;2023-03-12T18:04:48;9.70;1.00
21590;DHT22;10957;50.968;6.828;2023-03-12T18:09:49;9.80;1.00
21590;DHT22;10957;50.968;6.828;2023-03-12T18:14:50;10.20;1.00
21590;DHT22;10957;50.968;6.828;2023-03-12T18:19:52;10.00;1.00
21590;DHT22;10957;50.968;6.828;2023-03-12T18:24:53;10.30;1.00
21590;DHT22;10957;50.968;6.828;2023-03-12T18:29:55;10.20;1.00
21590;DHT22;10957;50.968;6.828;2023-03-12T18:34:56;9.90;1.00
21590;DHT22;10957;50.968;6.828;2023-03-12T18:39:58;10.30;1.00
21590;DHT22;10957;50.968;6.828;2023-03-12T18:44:59;9.90;1.00
21590;DHT22;10957;50.968;6.828;2023-03-12T18:50:00;10.30;1.00
21590;DHT22;10957;50.968;6.828;2023-03-12T18:55:02;10.20;1.00
21590;DHT22;10957;50.968;6.828;2023-03-12T19:00:04;10.10;1.00
21590;DHT22;10957;50.968;6.828;2023-03-12T19:05:06;10.20;1.00
21590;DHT22;10957;50.968;6.828;2023-03-12T19:10:08;10.30;1.00
21590;DHT22;10957;50.968;6.828;2023-03-12T19:15:10;10.00;1.00
21590;DHT22;10957;50.968;6.828;2023-03-12T19:20:12;9.50;1.00
21590;DHT22;10957;50.968;6.828;2023-03-12T19:25:13;9.90;1.00
21590;DHT22;10957;50.968;6.828;2023-03-12T19:30:15;9.30;1.00
21590;DHT22;10957;50.968;6.828;2023-03-12T19:35:17;9.80;1.00
21590;DHT22;10957;50.968;6.828;2023-03-12T19:40:18;9.60;1.00
21590;DHT22;10957;50.968;6.828;2023-03-12T19:45:19;9.20;1.00
21590;DHT22;10957;50.968;6.828;2023-03-12T19:50:21;9.10;1.00
21590;DHT22;10957;50.968;6.828;2023-03-12T19:55:23;9.30;1.00
21590;DHT22;10957;50.968;6.828;2023-03-12T20:00:24;9.50;1.00
21590;DHT22;10957;50.968;6.828;2023-03-12T20:05:26;9.40;1.00
21590;DHT22;10957;50.968;6.828;2023-03-12T20:10:27;9.20;1.00
21590;DHT22;10957;50.968;6.828;2023-03-12T20:15:29;9.20;1.00
21590;DHT22;10957;50.968;6.828;2023-03-12T20:20:30;9.00;1.00
21590;DHT22;10957;50.968;6.828;2023-03-12T20:25:31;9.50;1.00
21590;DHT22;10957;50.968;6.828;2023-03-12T20:30:37;8.90;1.00
21590;DHT22;10957;50.968;6.828;2023-03-12T20:35:40;9.30;1.00
21590;DHT22;10957;50.968;6.828;2023-03-12T20:40:44;9.20;1.00
21590;DHT22;10957;50.968;6.828;2023-03-12T20:45:48;9.10;1.40
21590;DHT22;10957;50.968;6.828;2023-03-12T20:50:54;9.10;9.30
21590;DHT22;10957;50.968;6.828;2023-03-12T20:55:56;8.50;15.80
21590;DHT22;10957;50.968;6.828;2023-03-12T21:01:02;9.00;21.70
21590;DHT22;10957;50.968;6.828;2023-03-12T21:06:04;9.00;22.00
21590;DHT22;10957;50.968;6.828;2023-03-12T21:11:06;9.20;20.60
21590;DHT22;10957;50.968;6.828;2023-03-12T21:16:09;9.00;20.60
21590;DHT22;10957;50.968;6.828;2023-03-12T21:21:12;9.20;21.30
21590;DHT22;10957;50.968;6.828;2023-03-12T21:26:14;8.90;31.90
21590;DHT22;10957;50.968;6.828;2023-03-12T21:31:20;9.00;39.10
21590;DHT22;10957;50.968;6.828;2023-03-12T21:36:21;9.00;45.70
21590;DHT22;10957;50.968;6.828;2023-03-12T21:41:22;8.90;41.10
21590;DHT22;10957;50.968;6.828;2023-03-12T21:46:23;9.40;44.90
21590;DHT22;10957;50.968;6.828;2023-03-12T21:51:26;9.10;52.00
21590;DHT22;10957;50.968;6.828;2023-03-12T21:56:27;9.20;58.80
21590;DHT22;10957;50.968;6.828;2023-03-12T22:01:30;9.20;61.50
21590;DHT22;10957;50.968;6.828;2023-03-12T22:06:31;9.50;53.10
21590;DHT22;10957;50.968;6.828;2023-03-12T22:11:32;9.00;44.10
21590;DHT22;10957;50.968;6.828;2023-03-12T22:16:34;9.10;57.50
21590;DHT22;10957;50.968;6.828;2023-03-12T22:21:35;9.20;62.40
21590;DHT22;10957;50.968;6.828;2023-03-12T22:26:36;9.00;71.00
21590;DHT22;10957;50.968;6.828;2023-03-12T22:31:37;9.10;92.30
21590;DHT22;10957;50.968;6.828;2023-03-12T22:36:39;8.60;87.60
21590;DHT22;10957;50.968;6.828;2023-03-12T22:41:40;8.50;93.20
21590;DHT22;10957;50.968;6.828;2023-03-12T22:46:41;9.10;99.90
21590;DHT22;10957;50.968;6.828;2023-03-12T22:51:42;9.20;97.60
21590;DHT22;10957;50.968;6.828;2023-03-12T22:56:44;9.00;99.90
21590;DHT22;10957;50.968;6.828;2023-03-12T23:01:45;9.30;98.30
21590;DHT22;10957;50.968;6.828;2023-03-12T23:06:46;9.60;91.70
21590;DHT22;10957;50.968;6.828;2023-03-12T23:11:47;9.10;90.10
21590;DHT22;10957;50.968;6.828;2023-03-12T23:16:48;9.00;99.90
21590;DHT22;10957;50.968;6.828;2023-03-12T23:21:49;9.30;99.90
21590;DHT22;10957;50.968;6.828;2023-03-12T23:26:51;9.10;99.90
21590;DHT22;10957;50.968;6.828;2023-03-12T23:31:54;9.30;99.90
21590;DHT22;10957;50.968;6.828;2023-03-12T23:36:55;9.20;99.90
21590;DHT22;10957;50.968;6.828;2023-03-12T23:41:57;9.50;99.90
21590;DHT22;10957;50.968;6.828;2023-03-12T23:46:58;9.60;99.90
21590;DHT22;10957;50.968;6.828;2023-03-12T23:51:59;10.00;99.90
21590;DHT22;10957;50.968;6.828;2023-03-12T23:57:00;10.20;99.90
